createdAt,value
2022-12-18T00:01:34.066Z,77.97
2022-12-18T00:04:06.547Z,74.07
2022-12-18T00:06:35.178Z,76.17
2022-12-18T00:09:05.493Z,73.60
2022-12-18T00:11:33.850Z,76.30
2022-12-18T00:14:02.191Z,75.03
2022-12-18T00:16:33.895Z,71.35
2022-12-18T00:19:02.717Z,71.20
2022-12-18T00:21:32.576Z,73.25
2022-12-18T00:24:01.896Z,73.50
2022-12-18T00:26:34.286Z,73.15
2022-12-18T00:29:03.291Z,80.18
2022-12-18T00:31:33.749Z,73.32
2022-12-18T00:34:02.015Z,74.20
2022-12-18T00:36:32.467Z,72.70
2022-12-18T00:39:01.679Z,76.05
2022-12-18T00:41:48.774Z,69.18
2022-12-18T00:44:18.647Z,71.15
2022-12-18T00:46:47.860Z,69.45
2022-12-18T00:49:16.539Z,72.95
2022-12-18T00:51:44.712Z,73.43
2022-12-18T00:54:13.300Z,72.43
2022-12-18T00:56:49.395Z,67.57
2022-12-18T00:59:17.977Z,72.57
2022-12-18T01:01:46.436Z,74.13
2022-12-18T01:04:14.835Z,67.97
2022-12-18T01:06:42.788Z,66.68
2022-12-18T01:09:10.711Z,66.95
2022-12-18T01:11:38.671Z,64.10
2022-12-18T01:14:08.154Z,67.22
2022-12-18T01:16:36.444Z,60.90
2022-12-18T01:19:04.471Z,58.50
2022-12-18T01:21:32.542Z,62.50
2022-12-18T01:24:00.492Z,61.53
2022-12-18T01:26:30.558Z,61.63
2022-12-18T01:28:59.129Z,65.50
2022-12-18T01:31:31.060Z,68.45
2022-12-18T01:33:59.511Z,61.58
2022-12-18T01:36:29.477Z,67.20
2022-12-18T01:38:58.130Z,66.28
2022-12-18T01:41:49.606Z,61.70
2022-12-18T01:44:55.080Z,62.53
2022-12-18T01:47:27.470Z,64.83
2022-12-18T01:49:56.449Z,68.97
2022-12-18T01:52:26.735Z,58.28
2022-12-18T01:54:56.223Z,62.83
2022-12-18T01:57:25.441Z,66.93
2022-12-18T01:59:58.979Z,60.88
2022-12-18T02:02:29.811Z,62.83
2022-12-18T02:04:57.880Z,58.03
2022-12-18T02:07:36.168Z,58.75
2022-12-18T02:10:13.250Z,54.80
2022-12-18T02:12:47.709Z,53.60
2022-12-18T02:15:21.160Z,59.30
2022-12-18T02:17:56.536Z,59.25
2022-12-18T02:20:30.289Z,55.47
2022-12-18T02:23:10.222Z,53.10
2022-12-18T02:25:59.658Z,49.17
2022-12-18T02:28:33.771Z,53.37
2022-12-18T02:31:05.032Z,51.53
2022-12-18T02:33:34.627Z,52.35
2022-12-18T02:36:03.623Z,54.83
2022-12-18T02:38:32.888Z,51.42
2022-12-18T02:41:02.542Z,51.42
2022-12-18T02:43:32.275Z,51.15
2022-12-18T02:46:01.795Z,49.00
2022-12-18T02:48:33.051Z,48.30
2022-12-18T02:51:06.174Z,51.40
2022-12-18T02:53:42.463Z,50.72
2022-12-18T02:56:16.886Z,48.83
2022-12-18T02:58:54.577Z,50.10
2022-12-18T03:01:28.724Z,45.45
2022-12-18T03:04:01.744Z,48.20
2022-12-18T03:06:34.049Z,48.53
2022-12-18T03:09:06.273Z,43.10
2022-12-18T03:11:54.243Z,44.25
2022-12-18T03:14:25.452Z,46.45
2022-12-18T03:16:56.741Z,43.60
2022-12-18T03:19:27.939Z,47.17
2022-12-18T03:21:58.160Z,49.65
2022-12-18T03:24:28.689Z,45.75
2022-12-18T03:27:00.668Z,46.63
2022-12-18T03:29:35.855Z,43.60
2022-12-18T03:32:13.843Z,46.13
2022-12-18T03:34:44.343Z,48.10
2022-12-18T03:37:12.364Z,44.63
2022-12-18T03:39:40.336Z,48.78
2022-12-18T03:42:12.733Z,46.50
2022-12-18T03:44:47.097Z,49.13
2022-12-18T03:47:19.160Z,51.43
2022-12-18T03:49:52.739Z,50.63
2022-12-18T03:52:27.204Z,56.88
2022-12-18T03:54:57.808Z,51.30
2022-12-18T03:57:30.539Z,54.00
2022-12-18T04:00:05.177Z,55.42
2022-12-18T04:02:35.397Z,55.58
2022-12-18T04:05:06.907Z,57.95
2022-12-18T04:07:35.582Z,58.25
2022-12-18T04:10:05.430Z,55.50
2022-12-18T04:12:33.405Z,57.90
2022-12-18T04:15:02.945Z,60.75
2022-12-18T04:17:30.951Z,58.33
2022-12-18T04:19:58.889Z,56.25
2022-12-18T04:22:26.948Z,58.13
2022-12-18T04:24:54.915Z,58.67
2022-12-18T04:27:23.740Z,63.90
2022-12-18T04:29:51.720Z,60.33
2022-12-18T04:32:21.030Z,59.88
2022-12-18T04:34:49.077Z,55.13
2022-12-18T04:37:17.100Z,60.72
2022-12-18T04:39:45.016Z,57.72
2022-12-18T04:42:12.986Z,62.75
2022-12-18T04:44:40.921Z,59.67
2022-12-18T04:47:09.026Z,67.15
2022-12-18T04:49:38.359Z,61.33
2022-12-18T04:52:06.546Z,57.40
2022-12-18T04:54:34.511Z,66.07
2022-12-18T04:57:02.541Z,65.43
2022-12-18T04:59:30.620Z,59.22
2022-12-18T05:01:58.738Z,62.28
2022-12-18T05:04:26.891Z,63.22
2022-12-18T05:06:56.207Z,56.90
2022-12-18T05:09:24.792Z,58.15
2022-12-18T05:11:52.728Z,60.65
2022-12-18T05:14:20.859Z,56.10
2022-12-18T05:16:48.827Z,55.75
2022-12-18T05:19:16.804Z,56.47
2022-12-18T05:21:44.758Z,47.80
2022-12-18T05:24:15.393Z,52.33
2022-12-18T05:26:44.085Z,49.08
2022-12-18T05:29:13.216Z,54.55
2022-12-18T05:31:42.792Z,50.80
2022-12-18T05:34:11.467Z,51.63
2022-12-18T05:36:39.545Z,45.67
2022-12-18T05:39:07.596Z,46.50
2022-12-18T05:41:37.112Z,49.08
2022-12-18T05:44:05.265Z,52.10
2022-12-18T05:46:34.240Z,53.33
2022-12-18T05:49:02.783Z,46.83
2022-12-18T05:51:30.684Z,46.72
2022-12-18T05:53:58.645Z,46.78
2022-12-18T05:56:26.640Z,46.33
2022-12-18T05:58:56.665Z,49.15
2022-12-18T06:01:26.431Z,43.25
2022-12-18T06:03:54.981Z,42.20
2022-12-18T06:06:25.560Z,43.15
2022-12-18T06:08:54.728Z,43.13
2022-12-18T06:11:25.003Z,42.10
2022-12-18T06:13:58.772Z,43.35
2022-12-18T06:16:27.540Z,45.42
2022-12-18T06:18:55.770Z,40.40
2022-12-18T06:21:23.704Z,42.00
2022-12-18T06:23:51.693Z,40.30
2022-12-18T06:26:24.670Z,42.70
2022-12-18T06:28:57.315Z,43.88
2022-12-18T06:31:25.796Z,40.33
2022-12-18T06:33:54.935Z,40.10
2022-12-18T06:36:23.135Z,37.35
2022-12-18T06:38:51.203Z,36.57
2022-12-18T06:41:22.042Z,44.63
2022-12-18T06:43:50.258Z,38.70
2022-12-18T06:46:19.640Z,40.55
2022-12-18T06:48:50.727Z,39.00
2022-12-18T06:51:23.417Z,37.40
2022-12-18T06:53:51.759Z,33.72
2022-12-18T06:56:19.849Z,38.55
2022-12-18T06:58:47.847Z,35.42
2022-12-18T07:01:16.224Z,39.88
2022-12-18T07:03:45.961Z,36.90
2022-12-18T07:06:19.279Z,39.65
2022-12-18T07:08:48.104Z,34.00
2022-12-18T07:11:16.777Z,38.37
2022-12-18T07:13:45.469Z,35.93
2022-12-18T07:16:20.793Z,38.58
2022-12-18T07:18:51.801Z,40.50
2022-12-18T07:21:21.502Z,36.95
2022-12-18T07:23:49.779Z,39.63
2022-12-18T07:26:19.964Z,36.25
2022-12-18T07:28:48.149Z,38.28
2022-12-18T07:31:18.227Z,37.85
2022-12-18T07:33:46.831Z,35.20
2022-12-18T07:36:16.458Z,37.38
2022-12-18T07:38:44.539Z,36.78
2022-12-18T07:41:15.197Z,35.85
2022-12-18T07:43:44.429Z,34.80
2022-12-18T07:46:14.671Z,35.40
2022-12-18T07:48:44.672Z,37.22
2022-12-18T07:51:19.853Z,32.88
2022-12-18T07:53:49.275Z,34.53
2022-12-18T07:56:29.591Z,35.25
2022-12-18T07:58:59.029Z,31.83
2022-12-18T08:01:27.269Z,32.63
2022-12-18T08:03:55.354Z,34.13
2022-12-18T08:06:25.087Z,32.70
2022-12-18T08:08:54.394Z,33.58
2022-12-18T08:11:22.612Z,31.45
2022-12-18T08:13:50.567Z,33.30
2022-12-18T08:16:19.430Z,35.85
2022-12-18T08:18:48.144Z,37.15
2022-12-18T08:21:21.906Z,31.90
2022-12-18T08:23:52.045Z,32.57
2022-12-18T08:26:21.122Z,30.80
2022-12-18T08:28:50.075Z,28.65
2022-12-18T08:31:19.502Z,29.95
2022-12-18T08:33:47.738Z,29.08
2022-12-18T08:36:15.644Z,27.05
2022-12-18T08:38:43.599Z,31.23
2022-12-18T08:41:16.993Z,30.30
2022-12-18T08:44:01.750Z,28.25
2022-12-18T08:46:35.949Z,29.83
2022-12-18T08:49:04.099Z,28.23
2022-12-18T08:51:32.120Z,30.60
2022-12-18T08:54:00.231Z,31.38
2022-12-18T08:56:30.869Z,30.30
2022-12-18T08:58:58.954Z,25.95
2022-12-18T09:01:27.194Z,28.03
2022-12-18T09:03:55.198Z,28.60
2022-12-18T09:06:24.799Z,26.63
2022-12-18T09:08:52.812Z,29.08
2022-12-18T09:11:24.181Z,25.52
2022-12-18T09:13:54.830Z,27.13
2022-12-18T09:16:27.357Z,26.95
2022-12-18T09:19:01.271Z,29.77
2022-12-18T09:21:30.692Z,27.15
2022-12-18T09:23:59.041Z,24.15
2022-12-18T09:26:27.956Z,25.58
2022-12-18T09:28:57.351Z,25.98
2022-12-18T09:31:26.233Z,26.88
2022-12-18T09:33:54.210Z,28.15
2022-12-18T09:36:22.128Z,28.00
2022-12-18T09:38:50.090Z,27.77
2022-12-18T09:41:41.664Z,25.02
2022-12-18T09:44:19.926Z,26.17
2022-12-18T09:46:54.660Z,27.70
2022-12-18T09:49:25.667Z,26.80
2022-12-18T09:51:58.127Z,24.42
2022-12-18T09:54:28.585Z,24.90
2022-12-18T09:56:57.241Z,24.55
2022-12-18T09:59:31.845Z,27.23
2022-12-18T10:02:00.001Z,29.08
2022-12-18T10:04:32.626Z,28.02
2022-12-18T10:07:09.341Z,27.80
2022-12-18T10:09:43.158Z,26.73
2022-12-18T10:12:19.717Z,28.97
2022-12-18T10:14:57.294Z,29.63
2022-12-18T10:17:34.724Z,30.20
2022-12-18T10:20:07.012Z,27.35
2022-12-18T10:22:45.439Z,26.95
2022-12-18T10:25:23.793Z,29.17
2022-12-18T10:27:55.405Z,30.27
2022-12-18T10:30:27.003Z,25.37
2022-12-18T10:32:55.243Z,28.60
2022-12-18T10:35:25.969Z,29.60
2022-12-18T10:38:07.657Z,27.70
2022-12-18T10:40:50.903Z,28.20
2022-12-18T10:43:23.967Z,26.08
2022-12-18T10:46:15.540Z,25.73
2022-12-18T10:48:56.236Z,26.23
2022-12-18T10:51:26.999Z,29.30
2022-12-18T10:53:58.966Z,26.38
2022-12-18T10:56:29.359Z,25.77
2022-12-18T10:59:02.786Z,27.98
2022-12-18T11:01:48.751Z,27.48
2022-12-18T11:04:20.846Z,29.02
2022-12-18T11:07:00.460Z,29.75
2022-12-18T11:09:30.164Z,27.40
2022-12-18T11:12:00.847Z,29.95
2022-12-18T11:14:30.879Z,30.90
2022-12-18T11:19:55.977Z,26.77
2022-12-18T11:22:27.394Z,25.77
2022-12-18T11:27:51.236Z,30.30
2022-12-18T11:30:25.024Z,28.15
2022-12-18T11:32:57.874Z,27.92
2022-12-18T11:35:37.473Z,31.58
2022-12-18T11:38:12.885Z,27.40
2022-12-18T11:40:44.151Z,29.23
2022-12-18T11:43:16.813Z,28.92
2022-12-18T11:45:51.761Z,29.65
2022-12-18T11:48:25.860Z,30.60
2022-12-18T11:50:55.874Z,29.25
2022-12-18T11:53:25.546Z,33.40
2022-12-18T11:56:10.797Z,32.50
2022-12-18T11:58:48.295Z,34.42
2022-12-18T12:01:40.381Z,32.07
2022-12-18T12:04:26.844Z,31.10
2022-12-18T12:07:08.849Z,30.97
2022-12-18T12:09:42.131Z,27.40
2022-12-18T12:12:30.026Z,32.70
2022-12-18T12:15:08.332Z,29.83
2022-12-18T12:17:42.972Z,31.17
2022-12-18T12:20:21.522Z,29.92
2022-12-18T12:22:57.119Z,29.88
2022-12-18T12:25:37.658Z,27.15
2022-12-18T12:28:21.424Z,30.15
2022-12-18T12:31:01.574Z,26.70
2022-12-18T12:33:40.162Z,27.95
2022-12-18T12:36:20.298Z,27.88
2022-12-18T12:38:52.429Z,27.20
2022-12-18T12:41:41.988Z,25.70
2022-12-18T12:44:15.334Z,28.02
2022-12-18T12:46:45.802Z,25.90
2022-12-18T12:49:17.244Z,26.08
2022-12-18T12:51:52.883Z,25.73
2022-12-18T12:54:24.939Z,27.10
2022-12-18T12:56:59.934Z,27.02
2022-12-18T12:59:33.597Z,28.50
2022-12-18T13:02:08.102Z,25.63
2022-12-18T13:04:42.178Z,27.25
2022-12-18T13:07:18.325Z,27.58
2022-12-18T13:10:15.269Z,26.58
2022-12-18T13:12:59.352Z,25.60
2022-12-18T13:15:32.632Z,29.23
2022-12-18T13:18:20.291Z,26.05
2022-12-18T13:20:55.233Z,25.00
2022-12-18T13:23:34.308Z,29.02
2022-12-18T13:26:33.933Z,28.75
2022-12-18T13:29:05.166Z,26.58
2022-12-18T13:32:20.951Z,27.20
2022-12-18T13:34:50.523Z,26.42
2022-12-18T13:37:44.900Z,24.63
2022-12-18T13:40:56.508Z,27.05
2022-12-18T13:43:41.531Z,25.23
2022-12-18T13:46:24.628Z,23.80
2022-12-18T13:48:57.141Z,27.65
2022-12-18T13:51:26.143Z,26.17
2022-12-18T13:53:57.077Z,26.35
2022-12-18T13:56:26.935Z,25.48
2022-12-18T13:59:16.029Z,28.23
2022-12-18T14:01:46.311Z,26.75
2022-12-18T14:04:20.596Z,25.60
2022-12-18T14:06:49.668Z,26.90
2022-12-18T14:09:21.530Z,27.02
2022-12-18T14:11:51.298Z,31.15
2022-12-18T14:14:21.794Z,34.03
2022-12-18T14:16:52.971Z,42.10
2022-12-18T14:19:21.092Z,46.90
2022-12-18T14:21:50.216Z,46.80
2022-12-18T14:24:20.236Z,44.28
2022-12-18T14:26:50.516Z,44.17
2022-12-18T14:29:28.824Z,43.40
2022-12-18T14:32:17.516Z,41.53
2022-12-18T14:34:46.679Z,35.97
2022-12-18T14:37:17.097Z,32.60
2022-12-18T14:39:59.067Z,34.85
2022-12-18T14:42:29.256Z,33.70
2022-12-18T14:45:41.770Z,33.15
2022-12-18T14:48:14.889Z,29.05
2022-12-18T14:50:47.242Z,29.35
2022-12-18T14:53:24.617Z,31.25
2022-12-18T14:55:53.174Z,27.67
2022-12-18T14:58:21.324Z,29.02
2022-12-18T15:00:50.765Z,30.00
2022-12-18T15:03:22.231Z,27.17
2022-12-18T15:05:51.355Z,29.00
2022-12-18T15:08:36.500Z,31.70
2022-12-18T15:11:09.019Z,26.48
2022-12-18T15:13:41.407Z,26.57
2022-12-18T15:16:14.795Z,29.02
2022-12-18T15:18:46.070Z,31.30
2022-12-18T15:21:19.935Z,28.00
2022-12-18T15:23:52.071Z,25.67
2022-12-18T15:26:22.086Z,26.50
2022-12-18T15:28:51.790Z,26.97
2022-12-18T15:31:29.881Z,29.08
2022-12-18T15:34:15.956Z,26.98
2022-12-18T15:36:43.964Z,28.98
2022-12-18T15:39:14.527Z,28.02
2022-12-18T15:42:02.734Z,26.55
2022-12-18T15:44:29.796Z,26.98
2022-12-18T15:47:02.260Z,28.10
2022-12-18T15:49:30.296Z,29.05
2022-12-18T15:52:01.225Z,29.40
2022-12-18T15:54:46.760Z,30.03
2022-12-18T15:57:27.463Z,27.90
2022-12-18T15:59:58.984Z,32.08
2022-12-18T16:02:29.430Z,26.33
2022-12-18T16:04:57.851Z,29.25
2022-12-18T16:07:28.186Z,26.85
2022-12-18T16:09:58.882Z,29.70
2022-12-18T16:12:28.330Z,30.58
2022-12-18T16:14:56.284Z,29.88
2022-12-18T16:17:24.204Z,32.53
2022-12-18T16:19:53.584Z,30.75
2022-12-18T16:22:23.715Z,31.50
2022-12-18T16:24:52.804Z,29.90
2022-12-18T16:27:21.492Z,26.57
2022-12-18T16:29:49.711Z,29.52
2022-12-18T16:32:19.717Z,31.08
2022-12-18T16:34:48.452Z,35.63
2022-12-18T16:37:18.564Z,38.40
2022-12-18T16:39:46.675Z,42.08
2022-12-18T16:42:17.531Z,39.13
2022-12-18T16:44:46.031Z,32.83
2022-12-18T16:47:14.986Z,32.83
2022-12-18T16:49:45.231Z,33.80
2022-12-18T16:52:13.508Z,30.70
2022-12-18T16:54:42.877Z,33.40
2022-12-18T16:57:14.172Z,31.93
2022-12-18T16:59:42.196Z,29.92
2022-12-18T17:02:17.109Z,29.70
2022-12-18T17:04:47.667Z,27.90
2022-12-18T17:07:16.350Z,30.63
2022-12-18T17:09:45.796Z,31.48
2022-12-18T17:12:13.807Z,30.17
2022-12-18T17:14:41.811Z,32.23
2022-12-18T17:17:25.141Z,29.27
2022-12-18T17:19:53.528Z,29.20
2022-12-18T17:22:23.128Z,29.50
2022-12-18T17:24:52.520Z,28.38
2022-12-18T17:27:20.498Z,28.35
2022-12-18T17:29:49.116Z,27.92
2022-12-18T17:32:17.889Z,30.25
2022-12-18T17:34:46.075Z,27.50
2022-12-18T17:37:14.425Z,28.33
2022-12-18T17:39:43.083Z,27.33
2022-12-18T17:42:15.557Z,27.27
2022-12-18T17:44:44.293Z,29.50
2022-12-18T17:47:13.109Z,28.38
2022-12-18T17:49:41.305Z,29.75
2022-12-18T17:52:09.369Z,27.88
2022-12-18T17:54:39.754Z,28.77
2022-12-18T17:57:07.983Z,28.63
2022-12-18T17:59:37.310Z,33.20
2022-12-18T18:02:05.618Z,32.67
2022-12-18T18:04:34.474Z,29.85
2022-12-18T18:07:02.997Z,30.35
2022-12-18T18:09:31.119Z,33.67
2022-12-18T18:12:16.688Z,30.27
2022-12-18T18:14:46.188Z,29.80
2022-12-18T18:17:14.128Z,31.15
2022-12-18T18:19:42.757Z,29.10
2022-12-18T18:22:15.554Z,28.70
2022-12-18T18:24:44.155Z,30.50
2022-12-18T18:27:12.169Z,33.22
2022-12-18T18:29:41.165Z,31.15
2022-12-18T18:32:10.466Z,30.33
2022-12-18T18:34:41.477Z,32.23
2022-12-18T18:37:10.536Z,30.55
2022-12-18T18:39:38.551Z,31.73
2022-12-18T18:42:06.977Z,39.17
2022-12-18T18:44:35.140Z,38.45
2022-12-18T18:47:04.248Z,37.15
2022-12-18T18:49:36.306Z,33.42
2022-12-18T18:52:04.255Z,33.60
2022-12-18T18:54:32.235Z,32.03
2022-12-18T18:59:48.354Z,31.88
2022-12-18T19:02:17.393Z,31.55
2022-12-18T19:04:47.286Z,34.83
2022-12-18T19:07:25.607Z,33.50
2022-12-18T19:10:00.044Z,34.20
2022-12-18T19:12:50.031Z,33.97
2022-12-18T19:15:18.039Z,33.47
2022-12-18T19:17:47.028Z,32.45
2022-12-18T19:20:17.207Z,33.20
2022-12-18T19:22:49.696Z,32.53
2022-12-18T19:25:37.141Z,33.60
2022-12-18T19:28:09.448Z,33.38
2022-12-18T19:30:54.541Z,32.55
2022-12-18T19:33:43.239Z,30.83
2022-12-18T19:36:15.713Z,32.95
2022-12-18T19:38:44.935Z,32.58
2022-12-18T19:41:13.929Z,36.47
2022-12-18T19:43:42.757Z,33.45
2022-12-18T19:46:14.072Z,30.50
2022-12-18T19:48:42.530Z,36.65
2022-12-18T19:51:15.851Z,36.15
2022-12-18T19:53:44.512Z,33.90
2022-12-18T19:56:15.207Z,38.95
2022-12-18T19:58:44.094Z,32.92
2022-12-18T20:01:12.803Z,35.80
2022-12-18T20:03:41.969Z,38.95
2022-12-18T20:06:12.010Z,39.47
2022-12-18T20:08:41.964Z,37.15
2022-12-18T20:11:09.958Z,34.85
2022-12-18T20:13:38.341Z,34.10
2022-12-18T20:16:06.960Z,34.90
2022-12-18T20:18:34.999Z,36.60
2022-12-18T20:21:03.817Z,38.38
2022-12-18T20:23:33.205Z,37.78
2022-12-18T20:26:04.374Z,38.70
2022-12-18T20:28:34.731Z,43.25
2022-12-18T20:31:03.586Z,41.03
2022-12-18T20:33:31.751Z,38.25
2022-12-18T20:36:03.957Z,37.90
2022-12-18T20:38:32.066Z,41.58
2022-12-18T20:41:02.292Z,40.08
2022-12-18T20:43:31.796Z,42.40
2022-12-18T20:46:04.216Z,40.50
2022-12-18T20:48:32.884Z,40.88
2022-12-18T20:51:03.802Z,42.53
2022-12-18T20:53:32.962Z,38.03
2022-12-18T20:56:02.182Z,40.33
2022-12-18T20:58:31.532Z,39.90
2022-12-18T21:01:09.283Z,42.13
2022-12-18T21:03:41.496Z,39.10
2022-12-18T21:06:10.706Z,38.45
2022-12-18T21:08:39.988Z,41.15
2022-12-18T21:11:36.439Z,40.88
2022-12-18T21:14:07.896Z,40.20
2022-12-18T21:16:36.194Z,38.25
2022-12-18T21:19:04.300Z,41.33
2022-12-18T21:21:37.998Z,40.15
2022-12-18T21:24:07.645Z,39.05
2022-12-18T21:26:39.216Z,38.50
2022-12-18T21:29:13.789Z,40.20
2022-12-18T21:31:41.986Z,37.60
2022-12-18T21:34:15.200Z,38.25
2022-12-18T21:36:43.211Z,38.72
2022-12-18T21:39:11.303Z,42.85
2022-12-18T21:41:56.709Z,40.60
2022-12-18T21:44:26.144Z,40.10
2022-12-18T21:46:58.370Z,43.53
2022-12-18T21:49:32.018Z,39.47
2022-12-18T21:52:01.308Z,38.50
2022-12-18T21:54:30.266Z,41.57
2022-12-18T21:56:59.482Z,44.00
2022-12-18T21:59:30.595Z,40.13
2022-12-18T22:02:00.859Z,43.50
2022-12-18T22:04:29.678Z,40.83
2022-12-18T22:06:57.790Z,38.75
2022-12-18T22:09:26.574Z,40.33
2022-12-18T22:11:54.896Z,42.28
2022-12-18T22:14:23.221Z,39.60
2022-12-18T22:16:53.473Z,42.75
2022-12-18T22:19:21.550Z,39.90
2022-12-18T22:21:50.641Z,40.72
2022-12-18T22:24:20.330Z,38.17
2022-12-18T22:26:48.918Z,36.53
2022-12-18T22:29:37.134Z,37.55
2022-12-18T22:32:07.928Z,42.23
2022-12-18T22:34:38.539Z,38.50
2022-12-18T22:37:06.728Z,38.53
2022-12-18T22:39:34.843Z,44.40
2022-12-18T22:42:10.818Z,38.63
2022-12-18T22:44:38.717Z,46.85
2022-12-18T22:47:08.227Z,42.00
2022-12-18T22:49:36.547Z,38.67
2022-12-18T22:52:05.286Z,41.42
2022-12-18T22:54:33.268Z,44.67
2022-12-18T22:57:01.206Z,41.72
2022-12-18T22:59:29.175Z,45.45
2022-12-18T23:01:59.038Z,37.53
2022-12-18T23:04:36.277Z,43.13
2022-12-18T23:07:05.082Z,41.25
2022-12-18T23:09:33.658Z,40.92
2022-12-18T23:12:02.208Z,45.28
2022-12-18T23:14:30.738Z,40.15
2022-12-18T23:16:58.995Z,42.67
2022-12-18T23:19:29.061Z,40.72
2022-12-18T23:21:58.802Z,39.65
2022-12-18T23:24:27.168Z,40.60
2022-12-18T23:26:55.217Z,39.27
2022-12-18T23:29:23.201Z,41.65
2022-12-18T23:31:51.207Z,39.83
2022-12-18T23:34:19.195Z,43.28
2022-12-18T23:36:52.021Z,41.47
2022-12-18T23:39:28.685Z,45.40
2022-12-18T23:41:58.050Z,41.10
2022-12-18T23:44:26.163Z,39.80
2022-12-18T23:46:54.296Z,41.20
2022-12-18T23:49:22.376Z,38.63
2022-12-18T23:51:52.189Z,40.60
2022-12-18T23:54:30.189Z,42.88
2022-12-18T23:57:01.796Z,39.78
2022-12-18T23:59:29.741Z,38.10
